Time;durP1;ratioP1;P1;durP2;ratioP2;P2;SDS_P1;SDS_P2;PMS_P1;PMS_P2;Temp;Humidity;BMP_temperature;BMP_pressure;BME280_temperature;BME280_humidity;BME280_pressure;Samples;Min_cycle;Max_cycle;Signal;HPM_P1;HPM_P2
2023/10/20 00:00:52;;;;;;;9.93;3.03;;;;;14.70;94884.00;;;;5086933;28;20601;-69
2023/10/20 00:03:41;;;;;;;8.90;2.90;;;;;14.70;94884.00;;;;5086878;28;20735;-69
2023/10/20 00:06:30;;;;;;;8.07;2.60;;;;;14.40;94881.00;;;;5083125;28;20679;-69
2023/10/20 00:09:21;;;;;;;14.73;4.53;;;;;14.50;94885.00;;;;5078969;28;20219;-69
2023/10/20 00:12:10;;;;;;;13.33;4.03;;;;;14.60;94886.00;;;;5067256;28;20227;-69
2023/10/20 00:14:59;;;;;;;10.70;3.23;;;;;14.40;94876.00;;;;5081718;28;20196;-69
2023/10/20 00:17:48;;;;;;;10.00;3.20;;;;;14.50;94873.00;;;;5085660;28;20691;-69
2023/10/20 00:20:38;;;;;;;12.07;3.77;;;;;14.50;94866.00;;;;5068955;28;20224;-69
2023/10/20 00:23:27;;;;;;;8.40;2.70;;;;;14.50;94864.00;;;;5086484;28;20211;-69
2023/10/20 00:26:17;;;;;;;14.03;4.27;;;;;14.50;94839.00;;;;5074271;28;20201;-69
2023/10/20 00:29:06;;;;;;;9.13;2.87;;;;;14.50;94835.00;;;;5077424;28;20207;-69
2023/10/20 00:31:55;;;;;;;4.93;1.70;;;;;14.30;94824.00;;;;5079026;28;20203;-69
2023/10/20 00:34:44;;;;;;;4.83;1.60;;;;;14.10;94829.00;;;;5084936;28;20214;-69
2023/10/20 00:37:33;;;;;;;5.20;1.80;;;;;14.00;94818.00;;;;5075816;28;20203;-69
2023/10/20 00:40:22;;;;;;;13.20;4.10;;;;;13.80;94825.00;;;;5067522;28;20220;-69
2023/10/20 00:43:13;;;;;;;15.23;4.67;;;;;14.30;94816.00;;;;5069102;28;20188;-69
2023/10/20 00:46:02;;;;;;;10.90;3.40;;;;;14.30;94819.00;;;;5082258;28;20652;-70
2023/10/20 00:48:51;;;;;;;10.33;3.33;;;;;14.20;94827.00;;;;5084759;28;20198;-69
2023/10/20 00:51:41;;;;;;;7.93;2.50;;;;;14.20;94827.00;;;;5085792;28;20232;-70
2023/10/20 00:54:30;;;;;;;9.80;3.03;;;;;14.30;94821.00;;;;5077911;28;20210;-69
2023/10/20 00:57:21;;;;;;;6.37;2.03;;;;;14.50;94809.00;;;;5070390;28;20207;-69
2023/10/20 01:00:13;;;;;;;11.70;3.57;;;;;14.50;94810.00;;;;5086042;28;20230;-69
2023/10/20 01:03:03;;;;;;;7.70;2.57;;;;;14.30;94817.00;;;;5070620;28;20196;-69
2023/10/20 01:05:53;;;;;;;5.10;1.67;;;;;14.50;94813.00;;;;5084116;28;20207;-69
2023/10/20 01:08:42;;;;;;;6.20;2.03;;;;;14.60;94807.00;;;;5087845;28;20214;-69
2023/10/20 01:11:31;;;;;;;8.30;2.73;;;;;14.40;94802.00;;;;5077768;28;20224;-69
2023/10/20 01:14:20;;;;;;;15.93;4.83;;;;;14.30;94800.00;;;;5080695;28;20257;-69
2023/10/20 01:17:12;;;;;;;8.77;2.87;;;;;14.40;94776.00;;;;5087034;28;20217;-69
2023/10/20 01:20:03;;;;;;;7.07;2.33;;;;;14.40;94796.00;;;;5085370;28;20226;-69
2023/10/20 01:22:52;;;;;;;7.43;2.33;;;;;14.60;94794.00;;;;5074988;28;20203;-68
2023/10/20 01:25:43;;;;;;;10.20;3.10;;;;;14.60;94790.00;;;;5082638;28;20250;-68
2023/10/20 01:28:32;;;;;;;6.93;2.30;;;;;14.30;94784.00;;;;5090129;28;20214;-69
2023/10/20 01:31:22;;;;;;;12.73;3.97;;;;;14.30;94789.00;;;;5089487;28;20242;-69
2023/10/20 01:34:11;;;;;;;9.47;3.03;;;;;14.30;94792.00;;;;5087871;28;20199;-69
2023/10/20 01:37:02;;;;;;;4.90;1.70;;;;;14.50;94794.00;;;;5076138;28;20204;-69
2023/10/20 01:39:51;;;;;;;9.27;2.83;;;;;14.60;94794.00;;;;5081399;28;20582;-70
2023/10/20 01:42:42;;;;;;;9.50;3.10;;;;;14.80;94798.00;;;;5091794;28;20582;-69
2023/10/20 01:45:31;;;;;;;8.43;2.70;;;;;14.50;94774.00;;;;5089199;28;20217;-70
2023/10/20 01:48:20;;;;;;;13.10;4.10;;;;;14.40;94772.00;;;;5090121;28;20656;-69
2023/10/20 01:51:09;;;;;;;9.57;3.07;;;;;14.60;94762.00;;;;5094928;28;20211;-69
2023/10/20 01:53:58;;;;;;;8.43;2.77;;;;;14.70;94758.00;;;;5078392;28;20219;-69
2023/10/20 01:56:47;;;;;;;10.80;3.40;;;;;14.10;94759.00;;;;5073687;28;20692;-68
2023/10/20 01:59:37;;;;;;;10.67;3.33;;;;;14.10;94755.00;;;;5074004;28;20211;-69
2023/10/20 02:02:26;;;;;;;13.30;4.30;;;;;14.40;94759.00;;;;5081221;28;20594;-69
2023/10/20 02:05:16;;;;;;;15.23;4.70;;;;;14.50;94759.00;;;;5083504;28;20769;-70
2023/10/20 02:08:05;;;;;;;15.77;4.80;;;;;14.60;94749.00;;;;5085970;28;20225;-69
2023/10/20 02:10:54;;;;;;;8.63;2.70;;;;;14.60;94753.00;;;;5084741;28;20226;-70
2023/10/20 02:13:43;;;;;;;10.20;3.13;;;;;14.60;94743.00;;;;5076167;28;20599;-69
2023/10/20 02:16:34;;;;;;;9.10;2.97;;;;;14.30;94722.00;;;;5075397;28;20198;-69
2023/10/20 02:19:23;;;;;;;11.00;3.43;;;;;14.40;94740.00;;;;5086156;28;20605;-68
2023/10/20 02:22:12;;;;;;;8.77;2.90;;;;;14.40;94723.00;;;;5087008;27;20206;-69
2023/10/20 02:25:01;;;;;;;12.03;3.73;;;;;14.40;94734.00;;;;5069301;28;20689;-69
2023/10/20 02:27:50;;;;;;;11.93;3.73;;;;;14.20;94741.00;;;;5088242;28;20202;-69
2023/10/20 02:30:40;;;;;;;13.73;4.40;;;;;14.20;94738.00;;;;5097122;22;20232;-69
2023/10/20 02:33:31;;;;;;;8.50;2.90;;;;;14.40;94723.00;;;;5082303;28;20255;-69
2023/10/20 02:36:21;;;;;;;13.10;4.43;;;;;14.10;94735.00;;;;5079624;28;20199;-68
2023/10/20 02:39:10;;;;;;;9.70;3.43;;;;;14.40;94728.00;;;;5084483;28;20203;-69
2023/10/20 02:41:59;;;;;;;8.67;2.90;;;;;14.30;94740.00;;;;5082453;28;20215;-69
2023/10/20 02:44:48;;;;;;;10.37;3.53;;;;;14.50;94729.00;;;;5080029;28;20214;-69
2023/10/20 02:47:37;;;;;;;8.13;2.80;;;;;14.50;94731.00;;;;5079983;28;20211;-69
2023/10/20 02:50:29;;;;;;;13.07;4.40;;;;;14.60;94733.00;;;;5093405;28;20222;-69
2023/10/20 02:53:19;;;;;;;9.83;3.43;;;;;14.60;94738.00;;;;5069132;28;20250;-69
2023/10/20 02:56:14;;;;;;;11.43;3.77;;;;;14.40;94746.00;;;;5083999;28;20213;-69
2023/10/20 02:59:03;;;;;;;7.13;2.47;;;;;14.30;94745.00;;;;5084705;28;20680;-69
2023/10/20 03:01:55;;;;;;;7.07;2.47;;;;;14.30;94740.00;;;;5085808;28;20237;-69
2023/10/20 03:04:44;;;;;;;8.40;2.90;;;;;14.30;94737.00;;;;5082338;28;20188;-69
2023/10/20 03:07:35;;;;;;;7.63;2.73;;;;;14.70;94732.00;;;;5071295;28;20742;-69
2023/10/20 03:10:24;;;;;;;10.43;3.60;;;;;14.80;94727.00;;;;5088175;28;20222;-69
2023/10/20 03:13:13;;;;;;;10.57;3.60;;;;;14.70;94731.00;;;;5077339;28;20231;-69
2023/10/20 03:16:02;;;;;;;9.40;3.13;;;;;14.90;94735.00;;;;5076296;28;20210;-69
2023/10/20 03:18:51;;;;;;;5.47;2.03;;;;;14.90;94728.00;;;;5072271;28;20204;-69
2023/10/20 03:21:40;;;;;;;6.90;2.37;;;;;15.00;94731.00;;;;5073074;28;20211;-69
2023/10/20 03:24:30;;;;;;;5.53;1.97;;;;;15.00;94740.00;;;;5081260;28;20855;-69
2023/10/20 03:27:19;;;;;;;12.10;4.20;;;;;15.00;94733.00;;;;5083264;28;20212;-69
2023/10/20 03:30:09;;;;;;;8.47;2.90;;;;;15.00;94722.00;;;;5085326;28;20738;-68
2023/10/20 03:32:58;;;;;;;5.30;1.93;;;;;15.00;94728.00;;;;5077771;28;20585;-69
2023/10/20 03:35:47;;;;;;;8.83;3.03;;;;;14.90;94737.00;;;;5068442;28;20200;-69
2023/10/20 03:38:37;;;;;;;8.70;2.97;;;;;14.90;94721.00;;;;5078414;28;20302;-69
2023/10/20 03:41:29;;;;;;;10.67;3.73;;;;;15.00;94724.00;;;;5078883;28;20219;-69
2023/10/20 03:44:21;;;;;;;13.27;4.43;;;;;15.00;94706.00;;;;5077853;28;20241;-69
2023/10/20 03:47:10;;;;;;;7.27;2.60;;;;;14.90;94701.00;;;;5075567;28;20206;-69
2023/10/20 03:50:00;;;;;;;12.50;4.07;;;;;14.70;94703.00;;;;5072838;28;20219;-69
2023/10/20 03:52:49;;;;;;;6.97;2.50;;;;;14.90;94697.00;;;;5079112;28;20198;-69
2023/10/20 03:55:38;;;;;;;9.70;3.23;;;;;15.00;94706.00;;;;5084626;28;20203;-69
2023/10/20 03:58:29;;;;;;;10.43;3.73;;;;;15.00;94700.00;;;;5077316;28;20286;-69
2023/10/20 04:01:18;;;;;;;12.50;4.33;;;;;14.90;94690.00;;;;5068759;28;20219;-69
2023/10/20 04:04:09;;;;;;;6.70;2.40;;;;;15.00;94693.00;;;;5067851;28;20196;-69
2023/10/20 04:06:58;;;;;;;6.77;2.33;;;;;14.70;94698.00;;;;5079896;28;20820;-69
2023/10/20 04:09:47;;;;;;;7.60;2.63;;;;;14.90;94677.00;;;;5086033;28;20218;-69
2023/10/20 04:12:39;;;;;;;6.37;2.30;;;;;14.80;94693.00;;;;5079667;28;20195;-69
2023/10/20 04:15:35;;;;;;;9.73;3.40;;;;;14.90;94673.00;;;;5081086;28;20200;-69
2023/10/20 04:18:26;;;;;;;11.77;4.00;;;;;14.80;94690.00;;;;5081067;28;20208;-69
2023/10/20 04:21:15;;;;;;;14.03;4.83;;;;;14.80;94688.00;;;;5090753;28;20214;-69
2023/10/20 04:24:06;;;;;;;5.80;2.10;;;;;14.80;94689.00;;;;5095275;28;20190;-69
2023/10/20 04:26:55;;;;;;;7.63;2.60;;;;;14.90;94681.00;;;;5081136;28;20748;-69
2023/10/20 04:41:50;;;;;;;10.30;3.47;;;;;14.90;94666.00;;;;5076762;28;20206;-69
2023/10/20 04:54:58;;;;;;;11.03;3.80;;;;;14.70;94618.00;;;;5090755;28;20222;-69
2023/10/20 04:57:52;;;;;;;11.90;4.00;;;;;14.60;94616.00;;;;5083757;28;20204;-69
2023/10/20 05:00:42;;;;;;;14.30;4.63;;;;;14.90;94594.00;;;;5087423;28;20242;-69
2023/10/20 05:03:44;;;;;;;8.73;3.03;;;;;15.00;94598.00;;;;5083465;28;20680;-69
2023/10/20 05:06:43;;;;;;;7.83;2.80;;;;;15.00;94611.00;;;;5090395;28;20207;-69
2023/10/20 05:09:33;;;;;;;8.40;2.90;;;;;14.70;94607.00;;;;5078840;28;20699;-69
2023/10/20 05:12:22;;;;;;;13.80;4.73;;;;;15.10;94612.00;;;;5088183;28;20585;-69
2023/10/20 05:15:12;;;;;;;7.37;2.70;;;;;14.90;94623.00;;;;5078957;28;20235;-69
2023/10/20 05:18:01;;;;;;;11.23;3.80;;;;;15.00;94600.00;;;;5088521;28;20200;-69
2023/10/20 05:20:50;;;;;;;7.50;2.60;;;;;15.20;94591.00;;;;5096096;28;20232;-69
2023/10/20 05:23:41;;;;;;;7.57;2.70;;;;;14.90;94599.00;;;;5097000;28;20601;-69
2023/10/20 05:26:30;;;;;;;5.53;2.00;;;;;15.00;94600.00;;;;5082769;28;20267;-69
2023/10/20 05:29:19;;;;;;;11.83;4.00;;;;;15.20;94602.00;;;;5088020;28;20206;-69
2023/10/20 05:32:09;;;;;;;5.77;2.13;;;;;15.30;94598.00;;;;5087496;28;20227;-69
2023/10/20 05:34:59;;;;;;;7.83;2.73;;;;;15.20;94593.00;;;;5089992;28;20219;-69
2023/10/20 05:37:48;;;;;;;4.60;1.70;;;;;15.20;94595.00;;;;5084842;28;20202;-69
2023/10/20 05:40:39;;;;;;;11.90;3.97;;;;;15.10;94606.00;;;;5085952;28;20215;-69
2023/10/20 05:43:30;;;;;;;11.30;4.00;;;;;14.90;94606.00;;;;5080803;28;20240;-69
2023/10/20 05:46:19;;;;;;;11.97;4.10;;;;;15.10;94602.00;;;;5087926;28;20195;-69
2023/10/20 05:49:08;;;;;;;7.73;2.70;;;;;15.00;94610.00;;;;5080122;28;20212;-69
2023/10/20 05:51:57;;;;;;;8.07;2.70;;;;;15.30;94613.00;;;;5087160;28;20600;-69
2023/10/20 05:54:47;;;;;;;12.80;4.30;;;;;15.30;94612.00;;;;5089619;28;20845;-69
2023/10/20 05:57:37;;;;;;;8.33;2.87;;;;;15.40;94615.00;;;;5084367;28;20211;-69
2023/10/20 06:00:26;;;;;;;11.83;4.03;;;;;15.40;94613.00;;;;5076252;28;20234;-69
2023/10/20 06:03:15;;;;;;;12.73;4.37;;;;;15.40;94593.00;;;;5083181;28;20202;-69
2023/10/20 06:06:05;;;;;;;11.83;3.90;;;;;15.40;94589.00;;;;5078792;28;20196;-69
2023/10/20 06:08:54;;;;;;;5.27;1.97;;;;;15.50;94585.00;;;;5082455;28;20200;-69
2023/10/20 06:11:43;;;;;;;5.10;1.83;;;;;15.10;94592.00;;;;5073669;28;20226;-69
2023/10/20 06:14:36;;;;;;;4.13;1.53;;;;;15.40;94599.00;;;;5071990;28;20735;-69
2023/10/20 06:17:25;;;;;;;8.97;3.17;;;;;15.40;94571.00;;;;5072415;28;20731;-70
2023/10/20 06:20:14;;;;;;;7.77;2.70;;;;;15.10;94584.00;;;;5085515;28;20219;-69
2023/10/20 06:23:04;;;;;;;8.57;3.07;;;;;15.40;94575.00;;;;5068502;28;20204;-69
2023/10/20 06:25:52;;;;;;;7.67;2.60;;;;;15.30;94567.00;;;;5082277;28;20196;-69
2023/10/20 06:28:43;;;;;;;9.23;3.20;;;;;15.40;94561.00;;;;5077849;28;20199;-69
2023/10/20 06:31:42;;;;;;;6.87;2.43;;;;;15.60;94554.00;;;;5082924;28;21006;-69
2023/10/20 06:34:34;;;;;;;7.67;2.67;;;;;15.70;94555.00;;;;5075515;28;21364;-69
2023/10/20 06:37:28;;;;;;;9.50;3.30;;;;;15.70;94543.00;;;;5086901;28;20200;-69
2023/10/20 06:40:17;;;;;;;9.17;3.30;;;;;15.50;94538.00;;;;5084696;28;20682;-69
2023/10/20 06:43:06;;;;;;;1.63;0.80;;;;;15.40;94550.00;;;;5079736;28;20202;-69
2023/10/20 06:45:59;;;;;;;5.57;1.93;;;;;15.40;94552.00;;;;5080056;28;20198;-69
2023/10/20 06:48:49;;;;;;;7.80;2.80;;;;;15.40;94538.00;;;;5082843;28;20211;-69
2023/10/20 06:51:39;;;;;;;7.00;2.53;;;;;15.50;94538.00;;;;5081507;28;20215;-69
2023/10/20 06:54:28;;;;;;;14.37;4.90;;;;;15.30;94529.00;;;;5084955;28;20199;-69
2023/10/20 06:57:19;;;;;;;13.47;4.53;;;;;15.40;94531.00;;;;5083761;28;20207;-69
2023/10/20 07:00:16;;;;;;;6.50;2.30;;;;;15.70;94543.00;;;;5086207;28;20223;-69
2023/10/20 07:03:05;;;;;;;7.73;2.73;;;;;15.90;94532.00;;;;5079531;28;20245;-69
2023/10/20 07:05:56;;;;;;;5.23;1.90;;;;;15.70;94535.00;;;;5082057;28;20584;-69
2023/10/20 07:08:45;;;;;;;8.67;3.00;;;;;15.80;94530.00;;;;5081007;28;20583;-69
2023/10/20 07:11:34;;;;;;;7.63;2.73;;;;;16.00;94531.00;;;;5084160;28;20607;-69
2023/10/20 07:14:23;;;;;;;14.07;4.83;;;;;15.80;94560.00;;;;5079237;28;20684;-69
2023/10/20 07:17:13;;;;;;;10.60;3.60;;;;;16.00;94547.00;;;;5077319;28;20200;-69
2023/10/20 07:20:04;;;;;;;4.47;1.70;;;;;15.90;94548.00;;;;5080465;28;20231;-69
2023/10/20 07:22:55;;;;;;;8.13;2.87;;;;;16.00;94550.00;;;;5077291;28;20204;-69
2023/10/20 07:25:44;;;;;;;7.83;2.77;;;;;16.00;94557.00;;;;5080633;28;20715;-69
2023/10/20 07:28:33;;;;;;;7.07;2.57;;;;;16.00;94563.00;;;;5067003;28;20688;-69
2023/10/20 07:31:22;;;;;;;11.63;4.00;;;;;16.10;94566.00;;;;5075749;28;20762;-69
2023/10/20 07:34:11;;;;;;;7.20;2.53;;;;;15.80;94561.00;;;;5081386;28;20208;-69
2023/10/20 07:37:00;;;;;;;9.73;3.37;;;;;16.10;94537.00;;;;5077735;28;20215;-69
2023/10/20 07:39:52;;;;;;;8.77;3.07;;;;;16.00;94544.00;;;;5081180;28;20196;-69
2023/10/20 07:42:42;;;;;;;7.87;2.80;;;;;16.20;94530.00;;;;5073576;28;20210;-69
2023/10/20 07:45:31;;;;;;;12.10;4.27;;;;;16.40;94517.00;;;;5072028;28;20584;-69
2023/10/20 07:48:20;;;;;;;12.23;4.27;;;;;16.40;94527.00;;;;5081478;28;20257;-69
2023/10/20 07:51:09;;;;;;;10.47;3.70;;;;;16.70;94526.00;;;;5085008;28;20215;-69
2023/10/20 07:53:58;;;;;;;7.33;2.57;;;;;16.60;94529.00;;;;5080873;28;20195;-69
2023/10/20 07:56:48;;;;;;;6.90;2.60;;;;;16.80;94512.00;;;;5077088;28;20250;-69
2023/10/20 07:59:38;;;;;;;8.07;2.87;;;;;16.80;94511.00;;;;5077350;28;20214;-69
2023/10/20 08:02:27;;;;;;;9.80;3.60;;;;;16.80;94513.00;;;;5079102;28;20211;-69
2023/10/20 08:05:16;;;;;;;12.40;4.20;;;;;16.80;94492.00;;;;5073128;28;20571;-69
2023/10/20 08:08:06;;;;;;;15.13;5.17;;;;;16.90;94505.00;;;;5084686;28;20203;-70
2023/10/20 08:10:55;;;;;;;8.13;2.97;;;;;17.10;94493.00;;;;5082473;28;20223;-69
2023/10/20 08:13:50;;;;;;;8.90;3.23;;;;;17.40;94502.00;;;;5089180;28;20195;-69
2023/10/20 08:16:39;;;;;;;10.10;3.63;;;;;17.70;94492.00;;;;5080494;28;20964;-69
2023/10/20 08:19:28;;;;;;;12.77;4.53;;;;;17.90;94505.00;;;;5084405;28;20571;-69
2023/10/20 08:22:17;;;;;;;14.13;4.97;;;;;18.00;94513.00;;;;5080006;28;20231;-69
2023/10/20 08:25:08;;;;;;;8.80;3.20;;;;;18.20;94514.00;;;;5082532;28;20219;-69
2023/10/20 08:27:58;;;;;;;17.53;5.87;;;;;18.30;94512.00;;;;5077179;28;20226;-69
2023/10/20 08:30:49;;;;;;;12.73;4.63;;;;;18.40;94513.00;;;;5086247;28;20731;-69
2023/10/20 08:33:38;;;;;;;6.50;2.87;;;;;18.30;94531.00;;;;5089438;28;20206;-69
2023/10/20 08:36:27;;;;;;;11.57;4.37;;;;;18.40;94505.00;;;;5082611;28;20231;-69
2023/10/20 08:39:19;;;;;;;8.93;3.63;;;;;18.50;94525.00;;;;5088720;28;20206;-69
2023/10/20 08:42:16;;;;;;;7.07;3.03;;;;;18.60;94521.00;;;;5088017;28;20198;-69
2023/10/20 08:45:08;;;;;;;9.87;3.77;;;;;18.40;94529.00;;;;5071041;28;20196;-69
2023/10/20 08:48:00;;;;;;;17.03;5.77;;;;;18.30;94507.00;;;;5076114;28;20585;-69
2023/10/20 08:50:50;;;;;;;14.40;5.50;;;;;18.50;94533.00;;;;5095737;28;20219;-69
2023/10/20 08:53:41;;;;;;;5.70;2.50;;;;;18.70;94538.00;;;;5083041;28;20225;-69
2023/10/20 08:56:30;;;;;;;14.30;5.27;;;;;18.80;94543.00;;;;5084445;28;20260;-69
2023/10/20 08:59:19;;;;;;;17.77;6.90;;;;;18.90;94541.00;;;;5083937;28;20207;-69
2023/10/20 09:02:09;;;;;;;3.93;2.43;;;;;18.70;94542.00;;;;5082167;28;20203;-69
2023/10/20 09:05:00;;;;;;;12.40;5.47;;;;;19.00;94539.00;;;;5082174;28;20195;-69
2023/10/20 09:07:52;;;;;;;10.33;4.53;;;;;19.20;94523.00;;;;5088418;28;20202;-69
2023/10/20 09:10:43;;;;;;;14.03;5.47;;;;;19.20;94535.00;;;;5088775;28;20231;-69
2023/10/20 09:13:34;;;;;;;11.63;6.03;;;;;19.20;94543.00;;;;5088561;28;20211;-69
2023/10/20 09:16:23;;;;;;;16.30;7.77;;;;;19.20;94543.00;;;;5073247;28;20241;-69
2023/10/20 09:19:13;;;;;;;9.70;5.00;;;;;19.00;94562.00;;;;5085915;28;20680;-69
2023/10/20 09:22:03;;;;;;;4.63;4.13;;;;;19.10;94554.00;;;;5086869;28;20242;-69
2023/10/20 09:24:55;;;;;;;13.77;7.13;;;;;19.40;94549.00;;;;5089300;28;20207;-69
2023/10/20 09:27:45;;;;;;;12.37;9.07;;;;;19.70;94556.00;;;;5080810;28;20198;-69
2023/10/20 09:30:34;;;;;;;15.20;9.70;;;;;19.70;94548.00;;;;5077733;28;20240;-69
2023/10/20 09:33:23;;;;;;;15.87;14.03;;;;;19.90;94551.00;;;;5085036;28;20711;-69
2023/10/20 09:36:13;;;;;;;23.37;21.17;;;;;20.00;94555.00;;;;5085206;28;20595;-69
2023/10/20 09:39:05;;;;;;;28.97;26.93;;;;;20.30;94547.00;;;;5089832;28;20205;-69
2023/10/20 09:41:55;;;;;;;38.03;35.83;;;;;20.40;94543.00;;;;5075061;28;20620;-69
2023/10/20 09:44:48;;;;;;;59.17;55.97;;;;;20.30;94525.00;;;;5080043;28;20591;-69
2023/10/20 09:47:37;;;;;;;101.87;97.30;;;;;20.20;94524.00;;;;5076191;28;20210;-69
2023/10/20 09:50:30;;;;;;;120.33;113.00;;;;;20.20;94536.00;;;;5083567;28;20227;-69
2023/10/20 09:53:20;;;;;;;133.80;126.10;;;;;20.60;94528.00;;;;5077569;28;20196;-69
2023/10/20 09:56:11;;;;;;;57.40;53.90;;;;;20.90;94520.00;;;;5078587;28;20227;-69
2023/10/20 09:59:00;;;;;;;30.33;28.40;;;;;21.10;94523.00;;;;5074134;28;20215;-69
2023/10/20 10:01:52;;;;;;;29.30;26.93;;;;;21.60;94507.00;;;;5080075;28;20227;-69
2023/10/20 10:04:43;;;;;;;29.67;26.93;;;;;21.30;94502.00;;;;5077434;28;20212;-69
2023/10/20 10:07:34;;;;;;;26.30;23.53;;;;;22.10;94498.00;;;;5087491;28;20208;-70
2023/10/20 10:10:23;;;;;;;20.87;19.83;;;;;22.10;94498.00;;;;5079711;28;20220;-69
2023/10/20 10:13:14;;;;;;;14.53;13.60;;;;;22.00;94501.00;;;;5084366;28;20203;-69
2023/10/20 10:16:13;;;;;;;21.73;18.87;;;;;22.30;94494.00;;;;5093694;28;20207;-69
2023/10/20 10:19:09;;;;;;;15.00;13.67;;;;;22.40;94515.00;;;;5095190;28;20669;-69
2023/10/20 10:22:04;;;;;;;15.07;13.63;;;;;22.40;94513.00;;;;5096922;28;20633;-69
2023/10/20 10:24:55;;;;;;;15.03;12.63;;;;;22.40;94509.00;;;;5086645;28;20219;-69
2023/10/20 10:27:44;;;;;;;17.30;15.67;;;;;22.60;94521.00;;;;5092550;28;20199;-69
2023/10/20 10:30:34;;;;;;;23.27;16.77;;;;;22.60;94520.00;;;;5095115;28;20234;-69
2023/10/20 10:33:25;;;;;;;20.97;17.10;;;;;22.60;94534.00;;;;5080444;28;20210;-69
2023/10/20 10:36:14;;;;;;;14.70;12.17;;;;;22.60;94531.00;;;;5081055;28;20281;-69
2023/10/20 10:39:03;;;;;;;13.13;10.63;;;;;22.20;94534.00;;;;5082780;28;20200;-69
2023/10/20 10:41:53;;;;;;;6.97;6.47;;;;;22.40;94535.00;;;;5080994;28;20406;-69
2023/10/20 10:44:42;;;;;;;9.60;7.33;;;;;22.30;94529.00;;;;5083117;28;20207;-69
2023/10/20 10:47:33;;;;;;;20.17;10.57;;;;;22.30;94520.00;;;;5078966;28;20183;-69
2023/10/20 10:50:22;;;;;;;21.83;10.40;;;;;22.50;94506.00;;;;5089157;28;20230;-69
2023/10/20 10:53:11;;;;;;;6.57;6.00;;;;;23.00;94496.00;;;;5082705;28;20196;-69
2023/10/20 10:56:00;;;;;;;14.10;7.50;;;;;22.60;94504.00;;;;5083052;28;20211;-69
2023/10/20 10:58:51;;;;;;;10.73;7.57;;;;;22.80;94501.00;;;;5085514;28;20199;-69
2023/10/20 11:01:40;;;;;;;11.73;8.70;;;;;23.00;94486.00;;;;5084405;28;20230;-69
2023/10/20 11:04:31;;;;;;;8.10;5.90;;;;;22.50;94483.00;;;;5086614;28;20195;-69
2023/10/20 11:07:22;;;;;;;18.83;9.70;;;;;23.10;94494.00;;;;5087376;28;20680;-69
2023/10/20 11:10:15;;;;;;;11.30;7.80;;;;;23.30;94497.00;;;;5083312;28;20297;-69
2023/10/20 11:13:07;;;;;;;11.27;7.83;;;;;23.30;94491.00;;;;5082561;28;20200;-69
2023/10/20 11:15:57;;;;;;;12.90;8.03;;;;;23.30;94487.00;;;;5078393;28;20207;-69
2023/10/20 11:18:47;;;;;;;16.27;8.03;;;;;23.00;94495.00;;;;5081088;28;20215;-69
2023/10/20 11:21:48;;;;;;;13.33;7.53;;;;;23.20;94497.00;;;;5081706;28;20223;-69
2023/10/20 11:24:37;;;;;;;11.10;7.03;;;;;23.20;94487.00;;;;5080304;28;20217;-69
2023/10/20 11:27:26;;;;;;;18.60;8.77;;;;;22.90;94499.00;;;;5073828;28;20203;-69
2023/10/20 11:30:16;;;;;;;9.13;5.37;;;;;23.20;94481.00;;;;5080458;28;20230;-69
2023/10/20 11:33:05;;;;;;;10.60;5.37;;;;;23.30;94472.00;;;;5082163;28;20211;-69
2023/10/20 11:35:56;;;;;;;10.23;5.30;;;;;23.50;94477.00;;;;5080114;28;20201;-69
2023/10/20 11:38:47;;;;;;;11.47;5.77;;;;;23.40;94469.00;;;;5078187;28;20226;-69
2023/10/20 11:41:36;;;;;;;9.00;5.43;;;;;23.60;94477.00;;;;5082205;28;20239;-69
2023/10/20 11:44:26;;;;;;;10.93;5.33;;;;;23.70;94471.00;;;;5083744;28;20215;-70
2023/10/20 11:47:15;;;;;;;5.17;4.30;;;;;23.00;94476.00;;;;5085828;28;20203;-69
2023/10/20 11:50:05;;;;;;;10.50;5.63;;;;;23.40;94451.00;;;;5079786;28;20214;-70
2023/10/20 11:52:54;;;;;;;11.10;5.63;;;;;23.60;94450.00;;;;5083362;28;20204;-69
2023/10/20 11:55:44;;;;;;;9.00;4.50;;;;;23.30;94447.00;;;;5079814;28;20614;-69
2023/10/20 11:58:33;;;;;;;16.53;7.40;;;;;23.50;94449.00;;;;5078311;28;20230;-69
2023/10/20 12:01:23;;;;;;;20.33;8.10;;;;;24.00;94435.00;;;;5076597;28;20215;-69
2023/10/20 12:04:12;;;;;;;9.20;4.47;;;;;24.10;94424.00;;;;5077063;28;20199;-70
2023/10/20 12:07:02;;;;;;;9.73;4.57;;;;;23.70;94415.00;;;;5081191;28;20195;-69
2023/10/20 12:09:51;;;;;;;10.43;5.03;;;;;24.20;94400.00;;;;5078210;28;20721;-70
2023/10/20 12:12:41;;;;;;;9.40;4.33;;;;;24.60;94403.00;;;;5084484;28;20191;-70
2023/10/20 12:15:31;;;;;;;20.30;8.73;;;;;24.70;94389.00;;;;5083154;28;20202;-70
2023/10/20 12:18:20;;;;;;;15.00;7.50;;;;;25.10;94399.00;;;;5084912;28;20605;-70
2023/10/20 12:21:09;;;;;;;5.40;4.87;;;;;24.90;94383.00;;;;5071193;28;20747;-70
2023/10/20 12:23:59;;;;;;;10.47;7.10;;;;;25.00;94386.00;;;;5079044;28;20563;-70
2023/10/20 12:26:49;;;;;;;11.97;8.63;;;;;25.10;94374.00;;;;5079161;28;20214;-70
2023/10/20 12:29:39;;;;;;;14.50;10.03;;;;;25.10;94383.00;;;;5076119;28;20208;-70
2023/10/20 12:32:28;;;;;;;18.07;11.07;;;;;25.10;94384.00;;;;5083345;28;20211;-69
2023/10/20 12:35:17;;;;;;;11.37;9.67;;;;;25.20;94370.00;;;;5075077;28;20565;-70
2023/10/20 12:38:07;;;;;;;15.03;9.50;;;;;25.70;94395.00;;;;5076501;28;20220;-69
2023/10/20 12:40:56;;;;;;;14.07;12.17;;;;;25.70;94367.00;;;;5083970;28;20218;-69
2023/10/20 12:43:47;;;;;;;16.27;14.57;;;;;25.90;94352.00;;;;5074286;28;20203;-69
2023/10/20 12:46:38;;;;;;;21.70;19.07;;;;;26.00;94374.00;;;;5082146;28;20224;-69
2023/10/20 12:49:27;;;;;;;24.83;21.70;;;;;26.20;94382.00;;;;5083445;28;20211;-69
2023/10/20 12:52:16;;;;;;;18.90;17.60;;;;;26.30;94377.00;;;;5089344;28;20203;-69
2023/10/20 12:55:06;;;;;;;18.83;17.43;;;;;26.30;94390.00;;;;5079875;28;20202;-69
2023/10/20 12:57:56;;;;;;;23.33;20.83;;;;;25.90;94384.00;;;;5084838;28;20603;-69
2023/10/20 13:00:45;;;;;;;18.07;16.27;;;;;26.00;94378.00;;;;5078960;28;20228;-69
2023/10/20 13:03:36;;;;;;;19.67;17.93;;;;;26.90;94365.00;;;;5074237;28;20217;-69
2023/10/20 13:06:25;;;;;;;29.93;27.23;;;;;27.10;94386.00;;;;5076462;28;20216;-69
2023/10/20 13:09:14;;;;;;;38.97;36.63;;;;;26.80;94389.00;;;;5084453;28;20201;-69
2023/10/20 13:12:04;;;;;;;37.13;35.07;;;;;26.80;94374.00;;;;5085286;28;20212;-70
2023/10/20 13:14:53;;;;;;;36.97;34.73;;;;;27.70;94367.00;;;;5082414;28;20894;-69
2023/10/20 13:17:42;;;;;;;57.40;54.40;;;;;28.40;94371.00;;;;5083825;28;20234;-70
2023/10/20 13:20:33;;;;;;;114.83;109.33;;;;;29.20;94374.00;;;;5074905;28;20215;-69
2023/10/20 13:23:22;;;;;;;132.57;125.83;;;;;29.70;94355.00;;;;5082407;28;20200;-69
2023/10/20 13:26:11;;;;;;;164.93;158.13;;;;;30.50;94380.00;;;;5089000;28;20209;-69
2023/10/20 13:29:00;;;;;;;;;;;;;30.70;94386.00;;;;5081422;28;20043;-70
2023/10/20 13:31:49;;;;;;;;;;;;;30.70;94387.00;;;;5086758;28;19928;-70
2023/10/20 13:34:38;;;;;;;;;;;;;30.70;94400.00;;;;5092287;28;19928;-70
2023/10/20 13:37:28;;;;;;;;;;;;;30.30;94407.00;;;;5078739;28;19919;-70
2023/10/20 13:40:17;;;;;;;;;;;;;30.00;94414.00;;;;5097089;28;19919;-70
2023/10/20 13:43:06;;;;;;;;;;;;;30.20;94385.00;;;;5086577;28;19920;-70
2023/10/20 13:45:55;;;;;;;;;;;;;30.10;94387.00;;;;5087989;28;19920;-70
2023/10/20 13:48:43;;;;;;;;;;;;;30.30;94379.00;;;;5089070;28;19931;-70
2023/10/20 13:51:33;;;;;;;;;;;;;30.30;94362.00;;;;5091602;28;19920;-70
2023/10/20 13:54:25;;;;;;;;;;;;;30.80;94357.00;;;;5085832;28;19920;-70
2023/10/20 13:57:14;;;;;;;;;;;;;30.80;94356.00;;;;5084231;28;19924;-70
2023/10/20 14:00:06;;;;;;;;;;;;;31.00;94364.00;;;;5085590;28;19935;-70
2023/10/20 14:02:55;;;;;;;;;;;;;31.00;94358.00;;;;5079521;28;19920;-70
2023/10/20 14:05:51;;;;;;;;;;;;;30.60;94377.00;;;;5084910;28;19924;-70
2023/10/20 14:08:40;;;;;;;;;;;;;31.00;94363.00;;;;5083941;28;19923;-70
2023/10/20 14:11:30;;;;;;;;;;;;;30.10;94347.00;;;;5081904;28;19923;-70
2023/10/20 14:14:19;;;;;;;;;;;;;30.70;94340.00;;;;5081471;28;19924;-70
2023/10/20 14:17:07;;;;;;;;;;;;;31.30;94363.00;;;;5078682;28;19924;-70
2023/10/20 14:19:57;;;;;;;;;;;;;30.80;94379.00;;;;5088784;28;19921;-70
2023/10/20 14:22:47;;;;;;;;;;;;;30.10;94394.00;;;;5074674;28;19920;-70
2023/10/20 14:25:36;;;;;;;;;;;;;29.20;94392.00;;;;5089357;28;19924;-70
2023/10/20 14:28:31;;;;;;;;;;;;;30.20;94392.00;;;;5079094;28;19920;-69
2023/10/20 14:31:21;;;;;;;;;;;;;30.30;94387.00;;;;5090767;22;19924;-73